createdAt,value
2022-12-25T00:00:21.130Z,0.90
2022-12-25T00:03:23.534Z,1.20
2022-12-25T00:06:26.176Z,0.80
2022-12-25T00:09:28.363Z,1.00
2022-12-25T00:12:30.402Z,0.90
2022-12-25T00:15:32.460Z,0.80
2022-12-25T00:18:34.576Z,1.00
2022-12-25T00:21:36.566Z,1.10
2022-12-25T00:24:38.694Z,1.13
2022-12-25T00:27:41.351Z,1.07
2022-12-25T00:30:43.529Z,1.40
2022-12-25T00:33:47.082Z,1.00
2022-12-25T00:36:51.301Z,1.17
2022-12-25T00:39:53.359Z,0.70
2022-12-25T00:42:55.417Z,1.20
2022-12-25T00:45:59.726Z,0.80
2022-12-25T00:49:01.826Z,1.00
2022-12-25T00:52:04.031Z,1.27
2022-12-25T00:55:06.447Z,1.10
2022-12-25T00:58:08.508Z,0.97
2022-12-25T01:01:11.938Z,1.03
2022-12-25T01:04:14.085Z,0.90
2022-12-25T01:07:18.950Z,1.00
2022-12-25T01:10:23.791Z,1.17
2022-12-25T01:13:26.477Z,1.40
2022-12-25T01:16:29.562Z,0.93
2022-12-25T01:19:31.624Z,1.00
2022-12-25T01:22:33.751Z,0.90
2022-12-25T01:25:36.007Z,1.00
2022-12-25T01:28:38.811Z,3.30
2022-12-25T01:31:41.084Z,2.30
2022-12-25T01:34:43.114Z,1.47
2022-12-25T01:37:45.170Z,1.80
2022-12-25T01:40:47.365Z,1.20
2022-12-25T01:44:01.764Z,1.30
2022-12-25T01:47:07.593Z,1.20
2022-12-25T01:50:09.828Z,1.27
2022-12-25T01:53:12.319Z,0.93
2022-12-25T01:56:14.459Z,1.70
2022-12-25T01:59:19.784Z,0.83
2022-12-25T02:02:22.839Z,1.10
2022-12-25T02:05:30.154Z,1.47
2022-12-25T02:08:32.582Z,0.90
2022-12-25T02:11:53.262Z,1.27
2022-12-25T02:15:04.972Z,0.93
2022-12-25T02:18:29.229Z,1.10
2022-12-25T02:22:01.019Z,1.20
2022-12-25T02:25:21.131Z,1.50
2022-12-25T02:28:25.978Z,1.60
2022-12-25T02:31:50.773Z,1.60
2022-12-25T02:35:02.578Z,1.30
2022-12-25T02:38:13.212Z,1.20
2022-12-25T02:41:17.605Z,1.23
2022-12-25T02:44:40.787Z,1.00
2022-12-25T02:48:01.500Z,0.83
2022-12-25T02:51:26.347Z,1.17
2022-12-25T02:54:55.640Z,0.70
2022-12-25T02:58:23.271Z,1.20
2022-12-25T03:01:47.479Z,1.30
2022-12-25T03:05:11.502Z,0.80
2022-12-25T03:08:19.312Z,0.97
2022-12-25T03:11:33.742Z,0.80
2022-12-25T03:14:54.361Z,0.87
2022-12-25T03:17:59.431Z,0.97
2022-12-25T03:21:20.341Z,0.93
2022-12-25T03:24:49.110Z,0.80
2022-12-25T03:27:54.461Z,1.27
2022-12-25T03:31:12.837Z,1.10
2022-12-25T03:34:51.354Z,0.90
2022-12-25T03:38:17.739Z,0.90
2022-12-25T03:41:53.676Z,1.60
2022-12-25T03:45:59.888Z,1.03
2022-12-25T03:49:43.065Z,1.27
2022-12-25T03:53:05.670Z,1.00
2022-12-25T03:56:26.875Z,0.80
2022-12-25T03:59:47.454Z,0.80
2022-12-25T04:03:08.330Z,0.80
2022-12-25T04:06:28.591Z,1.00
2022-12-25T04:09:49.250Z,1.00
2022-12-25T04:13:09.970Z,0.97
2022-12-25T04:16:30.729Z,1.20
2022-12-25T04:19:51.337Z,0.90
2022-12-25T04:23:11.860Z,0.70
2022-12-25T04:26:32.582Z,1.00
2022-12-25T04:29:53.164Z,1.13
2022-12-25T04:33:18.015Z,1.03
2022-12-25T04:36:20.141Z,1.13
2022-12-25T04:39:22.332Z,0.80
2022-12-25T04:42:24.490Z,1.40
2022-12-25T04:45:26.565Z,0.97
2022-12-25T04:48:30.835Z,0.80
2022-12-25T04:51:32.893Z,0.90
2022-12-25T04:54:35.058Z,1.17
2022-12-25T04:57:37.076Z,0.77
2022-12-25T05:00:39.194Z,0.90
2022-12-25T05:03:41.472Z,1.07
2022-12-25T05:06:43.515Z,0.80
2022-12-25T05:09:45.540Z,1.10
2022-12-25T05:12:47.608Z,0.80
2022-12-25T05:15:49.848Z,0.77
2022-12-25T05:18:52.375Z,0.93
2022-12-25T05:21:54.705Z,1.00
2022-12-25T05:24:56.887Z,0.87
2022-12-25T05:27:58.872Z,1.20
2022-12-25T05:31:01.111Z,1.07
2022-12-25T05:34:03.983Z,1.60
2022-12-25T05:37:06.077Z,0.90
2022-12-25T05:40:08.947Z,0.60
2022-12-25T05:43:10.983Z,0.80
2022-12-25T05:46:14.151Z,0.90
2022-12-25T05:49:16.314Z,0.97
2022-12-25T05:52:18.363Z,0.87
2022-12-25T05:55:20.482Z,1.30
2022-12-25T05:58:22.495Z,1.47
2022-12-25T06:01:28.351Z,0.80
2022-12-25T06:04:30.506Z,0.77
2022-12-25T06:07:32.665Z,0.90
2022-12-25T06:10:34.760Z,0.60
2022-12-25T06:13:37.319Z,0.80
2022-12-25T06:16:39.630Z,0.80
2022-12-25T06:19:42.790Z,0.90
2022-12-25T06:22:44.886Z,1.43
2022-12-25T06:25:47.039Z,0.80
2022-12-25T06:28:49.127Z,1.03
2022-12-25T06:31:55.160Z,1.30
2022-12-25T06:34:57.232Z,0.93
2022-12-25T06:37:59.367Z,1.03
2022-12-25T06:41:11.873Z,1.00
2022-12-25T06:44:14.310Z,1.30
2022-12-25T06:47:16.381Z,0.90
2022-12-25T06:50:18.583Z,0.90
2022-12-25T06:53:20.545Z,1.20
2022-12-25T06:56:25.868Z,1.10
2022-12-25T06:59:27.987Z,1.10
2022-12-25T07:02:31.325Z,1.20
2022-12-25T07:05:33.421Z,1.27
2022-12-25T07:08:35.466Z,0.97
2022-12-25T07:11:38.017Z,1.33
2022-12-25T07:14:40.496Z,1.00
2022-12-25T07:17:42.686Z,1.10
2022-12-25T07:20:44.673Z,1.17
2022-12-25T07:23:49.491Z,1.17
2022-12-25T07:26:52.079Z,0.90
2022-12-25T07:29:54.153Z,1.30
2022-12-25T07:32:56.883Z,0.90
2022-12-25T07:35:58.943Z,1.17
2022-12-25T07:39:00.984Z,1.40
2022-12-25T07:42:03.215Z,1.10
2022-12-25T07:45:06.349Z,1.40
2022-12-25T07:48:13.408Z,1.67
2022-12-25T07:51:18.641Z,1.20
2022-12-25T07:54:21.036Z,1.30
2022-12-25T07:57:23.164Z,1.00
2022-12-25T08:00:29.877Z,0.80
2022-12-25T08:03:33.439Z,1.40
2022-12-25T08:06:36.236Z,1.20
2022-12-25T08:09:38.245Z,0.60
2022-12-25T08:12:40.357Z,1.00
2022-12-25T08:15:42.672Z,0.90
2022-12-25T08:18:44.731Z,1.27
2022-12-25T08:21:46.796Z,2.03
2022-12-25T08:24:48.857Z,1.30
2022-12-25T08:27:50.906Z,0.90
2022-12-25T08:30:53.132Z,1.20
2022-12-25T08:33:58.373Z,1.23
2022-12-25T08:37:00.534Z,1.00
2022-12-25T08:40:02.650Z,1.00
2022-12-25T08:43:04.731Z,1.60
2022-12-25T08:46:07.561Z,1.43
2022-12-25T08:49:09.690Z,0.97
2022-12-25T08:52:11.771Z,0.90
2022-12-25T08:55:13.893Z,1.07
2022-12-25T08:58:16.972Z,0.77
2022-12-25T09:01:19.140Z,1.30
2022-12-25T09:04:21.353Z,1.10
2022-12-25T09:07:23.407Z,1.43
2022-12-25T09:10:25.499Z,1.20
2022-12-25T09:13:27.484Z,1.57
2022-12-25T09:16:29.900Z,1.60
2022-12-25T09:19:31.962Z,1.67
2022-12-25T09:22:34.366Z,1.80
2022-12-25T09:25:36.426Z,2.23
2022-12-25T09:28:38.380Z,2.00
2022-12-25T09:31:40.491Z,1.80
2022-12-25T09:34:42.625Z,1.80
2022-12-25T09:37:45.214Z,2.03
2022-12-25T09:40:47.471Z,2.30
2022-12-25T09:43:55.308Z,2.67
2022-12-25T09:47:06.003Z,2.50
2022-12-25T09:50:08.658Z,2.60
2022-12-25T09:53:20.631Z,2.13
2022-12-25T09:56:26.345Z,2.10
2022-12-25T09:59:28.470Z,2.20
2022-12-25T10:02:46.963Z,2.20
2022-12-25T10:06:04.647Z,1.70
2022-12-25T10:09:35.851Z,1.83
2022-12-25T10:12:50.293Z,1.10
2022-12-25T10:16:18.718Z,1.40
2022-12-25T10:19:44.620Z,1.77
2022-12-25T10:23:00.815Z,1.30
2022-12-25T10:26:04.630Z,1.73
2022-12-25T10:29:16.921Z,1.60
2022-12-25T10:32:18.937Z,1.50
2022-12-25T10:35:23.655Z,1.23
2022-12-25T10:38:25.731Z,1.57
2022-12-25T10:41:46.370Z,1.63
2022-12-25T10:44:59.869Z,1.27
2022-12-25T10:48:07.707Z,1.43
2022-12-25T10:51:10.195Z,1.43
2022-12-25T10:54:23.167Z,1.50
2022-12-25T10:57:26.766Z,1.30
2022-12-25T11:00:31.351Z,1.23
2022-12-25T11:03:37.228Z,1.53
2022-12-25T11:06:39.312Z,1.67
2022-12-25T11:10:09.209Z,1.30
2022-12-25T11:13:27.338Z,1.57
2022-12-25T11:16:36.334Z,1.67
2022-12-25T11:19:38.445Z,1.33
2022-12-25T11:22:46.049Z,1.30
2022-12-25T11:26:06.996Z,1.30
2022-12-25T11:29:24.937Z,1.60
2022-12-25T11:32:35.036Z,1.80
2022-12-25T11:36:24.845Z,1.77
2022-12-25T11:39:32.907Z,1.60
2022-12-25T11:42:38.726Z,1.70
2022-12-25T11:45:56.367Z,1.70
2022-12-25T11:49:01.847Z,1.57
2022-12-25T11:52:06.813Z,1.70
2022-12-25T11:55:21.932Z,1.60
2022-12-25T11:58:36.118Z,2.00
2022-12-25T12:02:00.463Z,1.50
2022-12-25T12:05:19.554Z,1.60
2022-12-25T12:08:21.650Z,1.70
2022-12-25T12:11:41.402Z,2.00
2022-12-25T12:14:54.845Z,2.40
2022-12-25T12:18:21.573Z,1.77
2022-12-25T12:21:31.360Z,2.00
2022-12-25T12:24:36.068Z,1.97
2022-12-25T12:27:40.915Z,2.17
2022-12-25T12:30:43.081Z,1.77
2022-12-25T12:33:58.509Z,2.07
2022-12-25T12:37:18.648Z,2.27
2022-12-25T12:40:28.101Z,2.27
2022-12-25T12:43:47.422Z,1.70
2022-12-25T12:46:57.657Z,2.00
2022-12-25T12:50:01.079Z,1.70
2022-12-25T12:53:28.738Z,2.10
2022-12-25T12:56:30.738Z,2.63
2022-12-25T12:59:47.221Z,1.70
2022-12-25T13:03:41.392Z,1.73
2022-12-25T13:06:52.151Z,1.80
2022-12-25T13:10:12.824Z,2.00
2022-12-25T13:13:23.409Z,1.83
2022-12-25T13:16:32.336Z,2.07
2022-12-25T13:19:36.786Z,2.03
2022-12-25T13:22:38.828Z,2.27
2022-12-25T13:25:40.964Z,2.63
2022-12-25T13:28:45.655Z,2.30
2022-12-25T13:31:48.632Z,2.20
2022-12-25T13:34:51.706Z,1.87
2022-12-25T13:37:54.891Z,2.20
2022-12-25T13:41:16.561Z,2.63
2022-12-25T13:44:25.120Z,2.83
2022-12-25T13:47:33.271Z,2.53
2022-12-25T13:50:35.646Z,2.60
2022-12-25T13:53:37.796Z,2.83
2022-12-25T13:56:51.542Z,2.50
2022-12-25T13:59:53.809Z,2.20
2022-12-25T14:02:56.307Z,1.87
2022-12-25T14:06:01.390Z,2.13
2022-12-25T14:09:04.625Z,2.30
2022-12-25T14:12:09.238Z,2.20
2022-12-25T14:15:17.100Z,1.90
2022-12-25T14:18:21.820Z,2.00
2022-12-25T14:21:34.671Z,2.30
2022-12-25T14:24:37.988Z,2.13
2022-12-25T14:27:40.009Z,2.70
2022-12-25T14:30:42.969Z,3.63
2022-12-25T14:33:46.462Z,2.20
2022-12-25T14:36:49.729Z,2.43
2022-12-25T14:40:05.147Z,2.70
2022-12-25T14:43:25.203Z,3.10
2022-12-25T14:46:30.738Z,3.10
2022-12-25T14:49:33.220Z,2.67
2022-12-25T14:52:43.987Z,2.90
2022-12-25T14:55:52.274Z,2.87
2022-12-25T14:58:59.301Z,3.13
2022-12-25T15:02:01.635Z,3.27
2022-12-25T15:05:03.832Z,3.23
2022-12-25T15:08:20.616Z,3.80
2022-12-25T15:11:22.734Z,4.17
2022-12-25T15:14:26.299Z,4.00
2022-12-25T15:17:30.758Z,4.30
2022-12-25T15:20:34.943Z,4.20
2022-12-25T15:23:37.117Z,3.97
2022-12-25T15:26:39.647Z,4.70
2022-12-25T15:30:11.768Z,5.10
2022-12-25T15:33:03.882Z,4.90
2022-12-25T15:36:06.104Z,5.93
2022-12-25T15:39:08.148Z,5.67
2022-12-25T15:42:19.455Z,7.30
2022-12-25T15:45:25.000Z,7.10
2022-12-25T15:48:27.101Z,7.73
2022-12-25T15:51:29.473Z,6.37
2022-12-25T15:54:32.797Z,6.93
2022-12-25T15:57:35.558Z,6.30
2022-12-25T16:00:37.638Z,7.77
2022-12-25T16:03:39.780Z,7.57
2022-12-25T16:06:41.913Z,6.70
2022-12-25T16:09:44.628Z,6.97
2022-12-25T16:12:47.052Z,7.40
2022-12-25T16:15:49.313Z,7.53
2022-12-25T16:18:51.421Z,6.77
2022-12-25T16:21:53.584Z,7.00
2022-12-25T16:24:55.709Z,6.77
2022-12-25T16:27:57.748Z,6.53
2022-12-25T16:30:59.883Z,6.30
2022-12-25T16:34:02.302Z,6.20
2022-12-25T16:37:04.922Z,6.13
2022-12-25T16:40:09.753Z,5.87
2022-12-25T16:43:11.838Z,6.03
2022-12-25T16:46:16.653Z,5.70
2022-12-25T16:49:18.707Z,7.10
2022-12-25T16:52:20.744Z,5.63
2022-12-25T16:55:29.361Z,6.13
2022-12-25T16:58:32.268Z,5.93
2022-12-25T17:01:34.570Z,7.03
2022-12-25T17:04:36.715Z,7.30
2022-12-25T17:07:39.505Z,6.93
2022-12-25T17:10:42.468Z,6.73
2022-12-25T17:13:48.356Z,7.23
2022-12-25T17:16:51.220Z,6.83
2022-12-25T17:19:53.413Z,7.57
2022-12-25T17:22:55.422Z,8.27
2022-12-25T17:26:01.607Z,7.80
2022-12-25T17:29:04.033Z,7.23
2022-12-25T17:32:09.237Z,7.03
2022-12-25T17:35:11.360Z,7.93
2022-12-25T17:38:13.459Z,7.47
2022-12-25T17:41:17.933Z,7.10
2022-12-25T17:44:21.335Z,7.47
2022-12-25T17:47:24.598Z,7.17
2022-12-25T17:50:26.798Z,6.10
2022-12-25T17:53:29.020Z,6.57
2022-12-25T17:56:32.835Z,8.60
2022-12-25T17:59:34.972Z,8.97
2022-12-25T18:02:38.116Z,8.77
2022-12-25T18:05:40.455Z,7.43
2022-12-25T18:08:44.702Z,7.87
2022-12-25T18:11:46.848Z,7.87
2022-12-25T18:14:48.905Z,7.90
2022-12-25T18:17:50.908Z,8.00
2022-12-25T18:20:54.564Z,7.77
2022-12-25T18:23:56.690Z,8.07
2022-12-25T18:26:58.729Z,7.47
2022-12-25T18:30:00.825Z,7.97
2022-12-25T18:33:03.309Z,8.00
2022-12-25T18:36:05.924Z,8.73
2022-12-25T18:39:08.428Z,7.80
2022-12-25T18:42:28.940Z,8.63
2022-12-25T18:45:31.042Z,7.63
2022-12-25T18:48:34.995Z,7.57
2022-12-25T18:51:37.356Z,7.80
2022-12-25T18:54:39.446Z,7.67
2022-12-25T18:57:41.730Z,7.20
2022-12-25T19:00:43.972Z,7.20
2022-12-25T19:03:46.780Z,7.40
2022-12-25T19:06:49.897Z,7.47
2022-12-25T19:09:52.158Z,7.50
2022-12-25T19:12:54.288Z,7.43
2022-12-25T19:15:59.697Z,8.40
2022-12-25T19:19:03.111Z,10.90
2022-12-25T19:22:07.266Z,10.67
2022-12-25T19:25:09.682Z,11.00
2022-12-25T19:28:12.201Z,11.13
2022-12-25T19:31:14.687Z,9.50
2022-12-25T19:34:16.957Z,9.60
2022-12-25T19:37:19.221Z,8.63
2022-12-25T19:40:22.775Z,8.00
2022-12-25T19:43:25.036Z,9.23
2022-12-25T19:46:32.207Z,8.00
2022-12-25T19:49:34.474Z,7.03
2022-12-25T19:52:36.631Z,8.43
2022-12-25T19:55:38.684Z,9.00
2022-12-25T19:58:41.080Z,7.97
2022-12-25T20:01:44.031Z,7.57
2022-12-25T20:04:46.255Z,7.53
2022-12-25T20:07:48.579Z,7.00
2022-12-25T20:10:50.775Z,7.37
2022-12-25T20:13:53.513Z,7.87
2022-12-25T20:16:57.404Z,7.00
2022-12-25T20:19:59.656Z,6.70
2022-12-25T20:23:01.936Z,7.10
2022-12-25T20:26:05.774Z,7.80
2022-12-25T20:29:08.062Z,7.50
2022-12-25T20:32:10.691Z,6.23
2022-12-25T20:35:19.358Z,7.20
2022-12-25T20:38:21.532Z,5.80
2022-12-25T20:41:26.764Z,6.63
2022-12-25T20:44:29.909Z,6.27
2022-12-25T20:47:32.069Z,5.80
2022-12-25T20:50:34.091Z,6.63
2022-12-25T20:53:36.778Z,6.33
2022-12-25T20:56:39.107Z,6.13
2022-12-25T20:59:43.483Z,5.63
2022-12-25T21:02:45.908Z,6.13
2022-12-25T21:05:55.737Z,5.47
2022-12-25T21:08:57.804Z,5.17
2022-12-25T21:12:00.013Z,5.00
2022-12-25T21:15:02.160Z,5.80
2022-12-25T21:18:04.229Z,4.90
2022-12-25T21:21:07.920Z,5.20
2022-12-25T21:24:10.979Z,5.63
2022-12-25T21:27:13.014Z,5.37
2022-12-25T21:30:16.080Z,5.07
2022-12-25T21:33:36.689Z,4.93
2022-12-25T21:36:40.100Z,4.73
2022-12-25T21:39:42.239Z,5.23
2022-12-25T21:42:45.813Z,5.37
2022-12-25T21:45:47.921Z,4.83
2022-12-25T21:48:50.197Z,5.00
2022-12-25T21:52:07.470Z,5.47
2022-12-25T21:55:09.494Z,5.63
2022-12-25T21:58:11.554Z,4.60
2022-12-25T22:01:17.248Z,5.13
2022-12-25T22:04:21.928Z,5.00
2022-12-25T22:07:23.927Z,5.10
2022-12-25T22:10:25.991Z,5.23
2022-12-25T22:13:47.473Z,5.17
2022-12-25T22:17:08.299Z,5.10
2022-12-25T22:20:17.000Z,5.10
2022-12-25T22:23:19.663Z,5.17
2022-12-25T22:26:21.775Z,5.03
2022-12-25T22:29:25.925Z,4.73
2022-12-25T22:32:28.611Z,4.67
2022-12-25T22:35:30.724Z,4.90
2022-12-25T22:38:33.020Z,4.53
2022-12-25T22:41:35.039Z,4.73
2022-12-25T22:44:37.661Z,4.70
2022-12-25T22:47:40.549Z,4.60
2022-12-25T22:50:42.642Z,4.80
2022-12-25T22:53:44.609Z,4.47
2022-12-25T22:56:49.477Z,4.30
2022-12-25T22:59:53.261Z,4.47
2022-12-25T23:02:55.455Z,4.80
2022-12-25T23:05:57.640Z,4.00
2022-12-25T23:09:00.318Z,4.00
2022-12-25T23:12:02.411Z,4.40
2022-12-25T23:15:05.814Z,4.67
2022-12-25T23:18:26.572Z,4.60
2022-12-25T23:21:47.951Z,4.30
2022-12-25T23:25:08.570Z,4.37
2022-12-25T23:28:10.760Z,5.43
2022-12-25T23:31:13.928Z,4.60
2022-12-25T23:34:15.897Z,4.57
2022-12-25T23:37:18.787Z,3.87
2022-12-25T23:40:20.967Z,4.13
2022-12-25T23:43:23.009Z,3.77
2022-12-25T23:46:25.551Z,3.67
2022-12-25T23:49:28.162Z,3.70
2022-12-25T23:52:30.251Z,3.30
2022-12-25T23:55:33.757Z,3.40
2022-12-25T23:58:36.588Z,3.50
